Melrose, OH (45861)

10:29 PM EST on December 17, 2014 (GMT -0500)
Dan Halter farm | Change Station
CLOSE
Current Station
Personal Weather Station
Location: Oakwood, OH
Elevation: 702 ft
Nearby Weather Stations

Elev 702 ft 41.11 °N, 84.40 °W | Updated 4 minutes ago

Overcast
Overcast
28.3 °F
Feels Like 24 °F
N
4.0
Wind Variable Wind from West
Gusts 9.0 mph

Today
High -- | Low -- °F
--% Chance of Precip.
Yesterday
High -- | Low -- °F
Precip. -- in
7:57 AM 5:10 PM
Waning Crescent, 17% visible
Pressure 30.24 in
Visibility 9.0 miles
Clouds Overcast 2600 ft
Windchill 24 °F
Dew Point 25 °F
Humidity 87%
Rainfall 0.00 in
Snow Depth Not available.
UV 0 out of 12
Pollen .10 out of 12
Air Quality Not available.
Flu Activity Not available.
METAR KAOH 180253Z AUTO 26012KT 9SM OVC026 M01/M06 A3021 RMK AO2 SLP240 T10111061 50003

More Conditions Fewer Conditions

Pressure 30.24 in
Visibility 9.0 miles
Clouds Overcast 2600 ft
Windchill 24 °F
Dew Point 25 °F
Humidity 87%
Rainfall 0.00 in
Snow Depth Not available.
UV 0 out of 12
Pollen .10 out of 12
Air Quality Not available.
Flu Activity Not available.
METAR KAOH 180253Z AUTO 26012KT 9SM OVC026 M01/M06 A3021 RMK AO2 SLP240 T10111061 50003

More Conditions Fewer Conditions

10-Day Weather Forecast

Almanac

Astronomy

Dec. 17, 2014 Rise Set
Actual Time
Civil Twilight
Nautical Twilight
Astronomical Twilight
Moon
Length of Visible Light
Length of Day
Tomorrow will be .
, % of the Moon is Illuminated

Today's Extremes

State Highs State Lows

Community

WunderPhotos

Upload Photos

1,778,878 photos uploaded!

WunderBlogs® & News

Nearby

Air Quality

  Air Quality AQ Index Pollutant
Not available.

Snow Depth

Station Depth Elevation

Earthquake Activity

City Distance Mag. Time & Date
Minimum magnitude displayed is 2.5.

Coastal Water Temperatures

Place Temperature

Nearby Weather Stations